createdAt,value
2019-05-03T00:00:07.230Z,70.57
2019-05-03T00:01:07.260Z,70.67
2019-05-03T00:02:07.278Z,70.95
2019-05-03T00:03:07.295Z,71.04
2019-05-03T00:04:07.321Z,70.76
2019-05-03T00:05:07.344Z,70.47
2019-05-03T00:06:07.389Z,71.11
2019-05-03T00:07:07.395Z,71.14
2019-05-03T00:08:07.413Z,70.44
2019-05-03T00:09:07.451Z,70.57
2019-05-03T00:10:07.459Z,71.04
2019-05-03T00:11:07.486Z,70.86
2019-05-03T00:12:07.519Z,72.19
2019-05-03T00:13:07.533Z,72.09
2019-05-03T00:14:07.555Z,70.47
2019-05-03T00:15:07.581Z,71.23
2019-05-03T00:16:07.604Z,71.33
2019-05-03T00:17:07.633Z,71.11
2019-05-03T00:18:07.647Z,70.86
2019-05-03T00:19:07.672Z,71.14
2019-05-03T00:20:07.699Z,71.04
2019-05-03T00:21:07.717Z,71.23
2019-05-03T00:22:07.743Z,70.95
2019-05-03T00:23:07.780Z,71.33
2019-05-03T00:24:07.793Z,71.20
2019-05-03T00:25:08.466Z,71.14
2019-05-03T00:26:07.840Z,71.48
2019-05-03T00:27:07.859Z,71.52
2019-05-03T00:28:07.885Z,72.19
2019-05-03T00:29:07.907Z,71.04
2019-05-03T00:30:07.931Z,70.76
2019-05-03T00:31:07.953Z,70.47
2019-05-03T00:32:07.974Z,70.47
2019-05-03T00:33:08.002Z,69.90
2019-05-03T00:34:08.029Z,69.71
2019-05-03T00:35:08.047Z,70.28
2019-05-03T00:36:08.077Z,70.00
2019-05-03T00:37:08.089Z,69.90
2019-05-03T00:38:08.115Z,69.96
2019-05-03T00:39:08.137Z,69.96
2019-05-03T00:40:08.157Z,69.39
2019-05-03T00:41:08.185Z,69.10
2019-05-03T00:42:08.222Z,69.01
2019-05-03T00:43:08.227Z,69.29
2019-05-03T00:44:08.269Z,68.34
2019-05-03T00:45:08.291Z,67.96
2019-05-03T00:46:08.308Z,67.29
2019-05-03T00:47:08.327Z,66.72
2019-05-03T00:48:08.352Z,66.34
2019-05-03T00:49:08.377Z,66.15
2019-05-03T00:50:08.401Z,65.10
2019-05-03T00:51:08.428Z,66.05
2019-05-03T00:52:08.444Z,65.20
2019-05-03T00:53:08.484Z,64.72
2019-05-03T00:54:08.498Z,63.00
2019-05-03T00:55:16.230Z,62.15
2019-05-03T00:56:08.534Z,62.94
2019-05-03T00:57:08.559Z,63.70
2019-05-03T00:58:08.585Z,62.34
2019-05-03T00:59:08.601Z,62.27
2019-05-03T01:00:08.631Z,62.56
2019-05-03T01:01:08.655Z,62.84
2019-05-03T01:02:08.677Z,62.65
2019-05-03T01:03:08.700Z,63.04
2019-05-03T01:04:08.726Z,62.56
2019-05-03T01:05:08.748Z,63.13
2019-05-03T01:06:08.775Z,61.99
2019-05-03T01:07:08.793Z,62.18
2019-05-03T01:08:08.819Z,62.27
2019-05-03T01:09:08.872Z,63.32
2019-05-03T01:10:08.869Z,61.80
2019-05-03T01:11:08.889Z,61.51
2019-05-03T01:12:08.921Z,61.99
2019-05-03T01:13:08.934Z,61.32
2019-05-03T01:14:08.964Z,60.84
2019-05-03T01:15:08.982Z,61.60
2019-05-03T01:16:09.006Z,61.13
2019-05-03T01:17:09.024Z,61.00
2019-05-03T01:18:09.048Z,61.19
2019-05-03T01:19:09.080Z,61.57
2019-05-03T01:20:09.137Z,61.60
2019-05-03T01:21:09.121Z,61.70
2019-05-03T01:22:09.148Z,61.89
2019-05-03T01:23:09.168Z,62.65
2019-05-03T01:24:09.224Z,64.56
2019-05-03T01:25:09.220Z,62.65
2019-05-03T01:26:09.233Z,61.00
2019-05-03T01:27:09.262Z,60.72
2019-05-03T01:28:09.287Z,59.95
2019-05-03T01:29:09.314Z,60.24
2019-05-03T01:30:09.340Z,60.43
2019-05-03T01:31:09.366Z,60.52
2019-05-03T01:32:09.376Z,59.99
2019-05-03T01:33:09.406Z,58.14
2019-05-03T01:34:09.431Z,57.48
2019-05-03T01:35:09.448Z,58.43
2019-05-03T01:36:09.470Z,59.09
2019-05-03T01:37:09.491Z,57.95
2019-05-03T01:38:11.636Z,55.85
2019-05-03T01:39:09.536Z,57.09
2019-05-03T01:40:09.566Z,55.28
2019-05-03T01:41:09.592Z,56.33
2019-05-03T01:42:09.618Z,55.28
2019-05-03T01:43:11.561Z,55.85
2019-05-03T01:44:09.656Z,55.09
2019-05-03T01:45:09.681Z,54.39
2019-05-03T01:46:09.711Z,55.57
2019-05-03T01:47:11.538Z,56.71
2019-05-03T01:48:09.749Z,57.28
2019-05-03T01:49:09.782Z,56.33
2019-05-03T01:50:09.809Z,55.38
2019-05-03T01:51:11.704Z,55.57
2019-05-03T01:52:09.854Z,55.47
2019-05-03T01:53:09.864Z,55.28
2019-05-03T01:54:09.890Z,55.95
2019-05-03T01:55:13.844Z,55.66
2019-05-03T01:56:11.725Z,54.90
2019-05-03T01:57:11.625Z,56.52
2019-05-03T01:58:10.011Z,57.19
2019-05-03T01:59:10.004Z,56.52
2019-05-03T02:00:11.728Z,55.35
2019-05-03T02:01:10.067Z,55.54
2019-05-03T02:02:10.077Z,56.62
2019-05-03T02:03:11.930Z,57.67
2019-05-03T02:04:12.106Z,57.67
2019-05-03T02:05:11.894Z,57.76
2019-05-03T02:06:11.901Z,57.57
2019-05-03T02:07:11.755Z,55.76
2019-05-03T02:08:10.213Z,56.14
2019-05-03T02:09:12.095Z,56.14
2019-05-03T02:10:11.926Z,57.86
2019-05-03T02:11:11.642Z,56.43
2019-05-03T02:12:10.308Z,56.43
2019-05-03T02:13:12.213Z,57.76
2019-05-03T02:14:12.215Z,56.04
2019-05-03T02:15:11.831Z,55.85
2019-05-03T02:16:11.567Z,56.14
2019-05-03T02:17:12.289Z,56.81
2019-05-03T02:18:14.770Z,55.73
2019-05-03T02:19:12.502Z,55.16
2019-05-03T02:20:12.434Z,55.26
2019-05-03T02:21:12.204Z,54.97
2019-05-03T02:22:12.028Z,55.16
2019-05-03T02:23:11.912Z,55.44
2019-05-03T02:24:11.839Z,55.83
2019-05-03T02:25:12.367Z,55.44
2019-05-03T02:26:11.781Z,55.44
2019-05-03T02:27:12.582Z,55.44
2019-05-03T02:28:12.506Z,56.49
2019-05-03T02:29:12.529Z,55.63
2019-05-03T02:30:13.714Z,56.02
2019-05-03T02:31:13.432Z,55.83
2019-05-03T02:32:12.965Z,58.59
2019-05-03T02:33:13.395Z,58.50
2019-05-03T02:34:12.577Z,57.07
2019-05-03T02:35:13.685Z,56.59
2019-05-03T02:36:13.295Z,58.02
2019-05-03T02:37:13.585Z,58.72
2019-05-03T02:38:13.007Z,58.14
2019-05-03T02:39:13.323Z,58.33
2019-05-03T02:40:13.015Z,58.33
2019-05-03T02:41:13.476Z,57.86
2019-05-03T02:42:11.893Z,58.24
2019-05-03T02:43:11.022Z,58.33
2019-05-03T02:44:11.046Z,57.76
2019-05-03T02:45:11.070Z,57.67
2019-05-03T02:46:11.132Z,58.43
2019-05-03T02:47:11.129Z,58.33
2019-05-03T02:48:11.147Z,58.72
2019-05-03T02:49:11.168Z,59.28
2019-05-03T02:50:11.191Z,59.09
2019-05-03T02:51:11.207Z,58.59
2019-05-03T02:52:11.236Z,58.50
2019-05-03T02:53:11.256Z,58.50
2019-05-03T02:54:11.278Z,59.64
2019-05-03T02:55:11.311Z,60.11
2019-05-03T02:56:21.017Z,59.95
2019-05-03T02:57:11.360Z,58.87
2019-05-03T02:58:11.406Z,59.35
2019-05-03T02:59:11.396Z,60.14
2019-05-03T03:00:11.439Z,60.43
2019-05-03T03:01:11.443Z,60.05
2019-05-03T03:02:11.467Z,59.38
2019-05-03T03:03:11.490Z,60.40
2019-05-03T03:04:11.510Z,59.95
2019-05-03T03:05:11.553Z,60.33
2019-05-03T03:06:11.558Z,60.02
2019-05-03T03:07:11.590Z,60.72
2019-05-03T03:08:11.602Z,61.29
2019-05-03T03:09:11.636Z,60.81
2019-05-03T03:10:11.651Z,60.88
2019-05-03T03:11:11.669Z,61.00
2019-05-03T03:12:11.700Z,61.19
2019-05-03T03:13:11.721Z,61.29
2019-05-03T03:14:11.753Z,61.10
2019-05-03T03:15:11.760Z,61.76
2019-05-03T03:16:11.790Z,61.45
2019-05-03T03:17:11.808Z,60.78
2019-05-03T03:18:11.834Z,60.72
2019-05-03T03:19:11.857Z,60.91
2019-05-03T03:20:11.884Z,60.88
2019-05-03T03:21:11.932Z,60.49
2019-05-03T03:22:11.934Z,60.91
2019-05-03T03:23:17.372Z,60.97
2019-05-03T03:24:11.976Z,60.78
2019-05-03T03:25:11.994Z,60.88
2019-05-03T03:26:12.016Z,62.02
2019-05-03T03:27:12.050Z,61.45
2019-05-03T03:28:12.067Z,62.21
2019-05-03T03:29:12.082Z,62.30
2019-05-03T03:30:12.118Z,62.88
2019-05-03T03:31:12.133Z,61.64
2019-05-03T03:32:12.194Z,62.21
2019-05-03T03:33:12.200Z,60.88
2019-05-03T03:34:12.205Z,60.97
2019-05-03T03:35:13.114Z,60.18
2019-05-03T03:36:43.042Z,60.30
2019-05-03T03:37:12.279Z,61.45
2019-05-03T03:38:12.292Z,61.64
2019-05-03T03:39:14.969Z,61.83
2019-05-03T03:40:12.349Z,61.45
2019-05-03T03:41:12.362Z,59.83
2019-05-03T03:42:12.385Z,59.80
2019-05-03T03:43:12.428Z,61.13
2019-05-03T03:44:15.156Z,61.83
2019-05-03T03:45:12.465Z,61.93
2019-05-03T03:46:12.487Z,61.73
2019-05-03T03:47:12.500Z,61.45
2019-05-03T03:48:12.532Z,62.21
2019-05-03T03:49:12.548Z,61.73
2019-05-03T03:50:15.031Z,61.54
2019-05-03T03:51:12.592Z,61.83
2019-05-03T03:52:12.618Z,61.93
2019-05-03T03:53:14.897Z,61.83
2019-05-03T03:54:15.366Z,62.02
2019-05-03T03:55:15.626Z,62.40
2019-05-03T03:56:12.720Z,62.30
2019-05-03T03:57:12.750Z,61.80
2019-05-03T03:58:17.701Z,62.37
2019-05-03T03:59:15.252Z,62.08
2019-05-03T04:00:12.796Z,62.49
2019-05-03T04:01:15.530Z,62.56
2019-05-03T04:02:15.725Z,63.23
2019-05-03T04:03:15.539Z,63.73
2019-05-03T04:04:12.894Z,62.65
2019-05-03T04:05:15.725Z,62.65
2019-05-03T04:06:15.261Z,62.37
2019-05-03T04:07:15.503Z,62.91
2019-05-03T04:08:12.981Z,63.51
2019-05-03T04:09:15.874Z,64.56
2019-05-03T04:10:15.592Z,64.56
2019-05-03T04:11:15.428Z,63.80
2019-05-03T04:12:13.083Z,63.89
2019-05-03T04:13:15.739Z,62.85
2019-05-03T04:14:15.948Z,62.37
2019-05-03T04:15:15.900Z,62.85
2019-05-03T04:16:17.033Z,63.13
2019-05-03T04:17:15.081Z,63.32
2019-05-03T04:18:13.209Z,63.20
2019-05-03T04:19:13.239Z,63.96
2019-05-03T04:20:16.101Z,63.76
2019-05-03T04:21:16.044Z,64.94
2019-05-03T04:22:16.293Z,64.43
2019-05-03T04:23:16.162Z,63.60
2019-05-03T04:24:16.121Z,64.65
2019-05-03T04:25:15.480Z,63.57
2019-05-03T04:26:16.013Z,63.48
2019-05-03T04:27:19.759Z,64.28
2019-05-03T04:28:15.977Z,64.08
2019-05-03T04:29:15.853Z,63.89
2019-05-03T04:30:16.186Z,64.05
2019-05-03T04:31:15.216Z,64.34
2019-05-03T04:32:15.660Z,64.43
2019-05-03T04:33:15.854Z,64.72
2019-05-03T04:34:15.998Z,64.62
2019-05-03T04:35:16.253Z,64.81
2019-05-03T04:36:15.853Z,65.00
2019-05-03T04:37:16.186Z,65.00
2019-05-03T04:38:16.047Z,65.19
2019-05-03T04:39:17.193Z,65.29
2019-05-03T04:40:15.662Z,64.72
2019-05-03T04:41:15.902Z,64.24
2019-05-03T04:42:16.673Z,64.34
2019-05-03T04:43:16.293Z,65.29
2019-05-03T04:44:15.478Z,65.38
2019-05-03T04:45:16.266Z,65.67
2019-05-03T04:46:16.210Z,65.61
2019-05-03T04:47:15.758Z,64.43
2019-05-03T04:48:16.002Z,64.75
2019-05-03T04:49:15.135Z,64.62
2019-05-03T04:50:16.338Z,65.10
2019-05-03T04:51:16.532Z,65.77
2019-05-03T04:52:16.534Z,65.48
2019-05-03T04:53:16.243Z,65.67
2019-05-03T04:54:16.429Z,65.77
2019-05-03T04:55:15.950Z,65.77
2019-05-03T04:56:16.923Z,65.58
2019-05-03T04:57:17.546Z,65.58
2019-05-03T04:58:16.145Z,66.27
2019-05-03T04:59:15.915Z,65.99
2019-05-03T05:00:15.958Z,64.84
2019-05-03T05:01:15.766Z,64.47
2019-05-03T05:02:15.934Z,64.75
2019-05-03T05:03:15.142Z,64.53
2019-05-03T05:04:16.209Z,65.48
2019-05-03T05:05:15.347Z,65.77
2019-05-03T05:06:15.384Z,65.86
2019-05-03T05:07:15.573Z,66.24
2019-05-03T05:08:16.222Z,66.05
2019-05-03T05:09:15.618Z,66.91
2019-05-03T05:10:15.280Z,66.85
2019-05-03T05:11:15.814Z,65.99
2019-05-03T05:12:16.278Z,66.08
2019-05-03T05:13:15.795Z,65.61
2019-05-03T05:14:15.313Z,66.37
2019-05-03T05:15:15.707Z,67.13
2019-05-03T05:16:16.030Z,68.18
2019-05-03T05:17:16.315Z,67.70
2019-05-03T05:18:15.978Z,67.51
2019-05-03T05:19:15.199Z,65.89
2019-05-03T05:20:14.640Z,65.51
2019-05-03T05:21:15.023Z,65.42
2019-05-03T05:22:15.556Z,66.18
2019-05-03T05:23:14.895Z,64.94
2019-05-03T05:24:15.182Z,65.23
2019-05-03T05:25:14.908Z,65.51
2019-05-03T05:26:14.748Z,66.37
2019-05-03T05:27:14.780Z,65.32
2019-05-03T05:28:15.085Z,65.03
2019-05-03T05:29:14.820Z,65.13
2019-05-03T05:30:15.029Z,64.62
2019-05-03T05:31:15.212Z,64.81
2019-05-03T05:32:14.894Z,65.10
2019-05-03T05:33:14.912Z,65.32
2019-05-03T05:34:15.356Z,65.42
2019-05-03T05:35:14.967Z,65.51
2019-05-03T05:36:15.406Z,65.32
2019-05-03T05:37:15.008Z,65.51
2019-05-03T05:38:15.074Z,65.51
2019-05-03T05:39:15.593Z,65.10
2019-05-03T05:40:15.613Z,65.29
2019-05-03T05:41:15.635Z,65.13
2019-05-03T05:42:15.120Z,64.75
2019-05-03T05:43:15.295Z,64.84
2019-05-03T05:44:15.159Z,65.13
2019-05-03T05:45:15.454Z,65.61
2019-05-03T05:46:15.210Z,64.84
2019-05-03T05:47:15.233Z,65.32
2019-05-03T05:48:15.414Z,64.94
2019-05-03T05:49:15.274Z,64.56
2019-05-03T05:50:15.300Z,64.56
2019-05-03T05:51:16.113Z,64.28
2019-05-03T05:52:15.581Z,65.61
2019-05-03T05:53:15.405Z,65.70
2019-05-03T05:54:15.382Z,65.61
2019-05-03T05:55:15.416Z,65.89
2019-05-03T05:56:15.783Z,65.61
2019-05-03T05:57:15.459Z,64.37
2019-05-03T05:58:15.717Z,64.56
2019-05-03T05:59:15.543Z,64.15
2019-05-03T06:00:15.535Z,64.62
2019-05-03T06:01:15.547Z,65.58
2019-05-03T06:02:15.561Z,65.67
2019-05-03T06:03:15.591Z,64.84
2019-05-03T06:04:15.613Z,65.61
2019-05-03T06:05:15.636Z,64.65
2019-05-03T06:06:15.660Z,64.47
2019-05-03T06:07:15.678Z,64.47
2019-05-03T06:08:15.709Z,64.56
2019-05-03T06:09:15.725Z,64.90
2019-05-03T06:10:16.692Z,64.72
2019-05-03T06:11:15.794Z,64.90
2019-05-03T06:12:15.793Z,64.84
2019-05-03T06:13:15.811Z,64.37
2019-05-03T06:14:15.835Z,64.65
2019-05-03T06:15:15.860Z,64.37
2019-05-03T06:16:15.881Z,64.24
2019-05-03T06:17:15.905Z,64.65
2019-05-03T06:18:15.931Z,63.89
2019-05-03T06:19:15.944Z,63.89
2019-05-03T06:20:15.985Z,63.13
2019-05-03T06:21:15.990Z,63.70
2019-05-03T06:22:16.015Z,62.85
2019-05-03T06:23:16.034Z,63.51
2019-05-03T06:24:16.059Z,64.59
2019-05-03T06:25:16.762Z,64.12
2019-05-03T06:26:16.107Z,62.88
2019-05-03T06:27:16.165Z,62.02
2019-05-03T06:29:16.220Z,62.78
2019-05-03T06:30:16.195Z,62.59
2019-05-03T06:31:16.227Z,62.49
2019-05-03T06:32:16.243Z,62.02
2019-05-03T06:33:16.268Z,61.80
2019-05-03T06:34:16.287Z,62.46
2019-05-03T06:35:16.315Z,62.46
2019-05-03T06:36:16.338Z,62.18
2019-05-03T06:37:16.361Z,62.37
2019-05-03T06:38:16.379Z,63.04
2019-05-03T06:39:16.405Z,62.49
2019-05-03T06:40:16.427Z,61.83
2019-05-03T06:41:16.449Z,61.99
2019-05-03T06:42:19.119Z,62.46
2019-05-03T06:43:16.499Z,61.51
2019-05-03T06:44:19.174Z,62.21
2019-05-03T06:45:16.543Z,62.59
2019-05-03T06:46:18.378Z,61.83
2019-05-03T06:47:16.584Z,62.12
2019-05-03T06:48:17.698Z,61.64
2019-05-03T06:49:16.638Z,61.42
2019-05-03T06:50:19.324Z,61.51
2019-05-03T06:51:19.992Z,62.56
2019-05-03T06:52:19.693Z,61.90
2019-05-03T06:53:16.727Z,61.70
2019-05-03T06:54:20.422Z,61.51
2019-05-03T06:55:16.765Z,62.46
2019-05-03T06:56:19.307Z,61.99
2019-05-03T06:57:16.811Z,61.99
2019-05-03T06:58:30.378Z,61.61
2019-05-03T06:59:16.859Z,62.12
2019-05-03T07:00:16.878Z,60.88
2019-05-03T07:01:16.904Z,61.73
2019-05-03T07:02:16.924Z,61.64
2019-05-03T07:03:16.948Z,61.22
2019-05-03T07:04:16.977Z,61.54
2019-05-03T07:05:16.996Z,61.45
2019-05-03T07:06:17.014Z,60.40
2019-05-03T07:07:17.037Z,60.18
2019-05-03T07:08:17.066Z,58.97
2019-05-03T07:09:17.090Z,59.26
2019-05-03T07:10:17.110Z,59.45
2019-05-03T07:11:17.140Z,58.69
2019-05-03T07:12:17.156Z,58.21
2019-05-03T07:13:17.180Z,57.73
2019-05-03T07:14:17.211Z,61.19
2019-05-03T07:15:17.222Z,61.10
2019-05-03T07:16:17.260Z,59.48
2019-05-03T07:17:17.282Z,57.76
2019-05-03T07:18:17.303Z,56.14
2019-05-03T07:19:17.330Z,61.70
2019-05-03T07:20:17.339Z,61.41
2019-05-03T07:21:17.358Z,57.89
2019-05-03T07:22:17.384Z,56.71
2019-05-03T07:23:17.404Z,59.57
2019-05-03T07:24:17.433Z,61.89
2019-05-03T07:25:17.447Z,61.99
2019-05-03T07:26:17.478Z,61.07
2019-05-03T07:27:17.496Z,60.97
2019-05-03T07:28:17.520Z,61.92
2019-05-03T07:29:17.544Z,61.25
2019-05-03T07:30:17.576Z,57.43
2019-05-03T07:31:17.594Z,57.63
2019-05-03T07:32:17.610Z,55.88
2019-05-03T07:33:17.633Z,56.74
2019-05-03T07:34:17.658Z,57.89
2019-05-03T07:35:17.684Z,56.33
2019-05-03T07:36:17.706Z,58.46
2019-05-03T07:38:17.768Z,59.79
2019-05-03T07:39:17.781Z,56.55
2019-05-03T07:40:17.807Z,55.69
2019-05-03T07:41:17.818Z,56.96
2019-05-03T07:42:17.843Z,58.39
2019-05-03T07:43:18.949Z,57.43
2019-05-03T07:44:17.906Z,55.91
2019-05-03T07:45:17.927Z,58.77
2019-05-03T07:46:17.942Z,55.72
2019-05-03T07:47:17.963Z,56.67
2019-05-03T07:48:17.983Z,55.88
2019-05-03T07:49:18.002Z,54.93
2019-05-03T07:50:18.046Z,55.02
2019-05-03T07:51:18.071Z,54.45
2019-05-03T07:52:18.088Z,55.41
2019-05-03T07:53:18.105Z,55.41
2019-05-03T07:54:18.125Z,54.10
2019-05-03T07:55:18.149Z,54.10
2019-05-03T07:56:18.171Z,52.83
2019-05-03T07:57:18.298Z,53.31
2019-05-03T07:58:18.251Z,53.12
2019-05-03T07:59:18.239Z,53.69
2019-05-03T08:00:18.263Z,53.50
2019-05-03T08:01:18.293Z,54.36
2019-05-03T08:02:18.429Z,53.41
2019-05-03T08:03:18.339Z,53.91
2019-05-03T08:04:18.362Z,56.77
2019-05-03T08:05:18.389Z,56.32
2019-05-03T08:06:18.404Z,52.76
2019-05-03T08:07:22.334Z,51.31
2019-05-03T08:08:18.449Z,51.40
2019-05-03T08:09:18.575Z,52.16
2019-05-03T08:10:18.516Z,53.02
2019-05-03T08:11:18.523Z,52.73
2019-05-03T08:12:18.551Z,52.16
2019-05-03T08:13:18.573Z,55.34
2019-05-03T08:14:18.589Z,56.70
2019-05-03T08:15:18.611Z,53.55
2019-05-03T08:16:18.639Z,50.28
2019-05-03T08:17:18.663Z,50.57
2019-05-03T08:18:18.693Z,55.18
2019-05-03T08:19:18.707Z,56.89
2019-05-03T08:20:18.740Z,52.28
2019-05-03T08:21:18.775Z,52.48
2019-05-03T08:22:18.793Z,54.32
2019-05-03T08:23:27.515Z,52.98
2019-05-03T08:24:18.825Z,51.81
2019-05-03T08:25:18.865Z,51.12
2019-05-03T08:26:18.917Z,51.78
2019-05-03T08:27:18.907Z,54.93
2019-05-03T08:28:18.921Z,53.33
2019-05-03T08:29:19.658Z,54.48
2019-05-03T08:30:18.977Z,55.94
2019-05-03T08:31:18.989Z,51.81
2019-05-03T08:32:19.032Z,50.57
2019-05-03T08:33:19.049Z,50.38
2019-05-03T08:34:19.077Z,50.85
2019-05-03T08:35:19.089Z,50.85
2019-05-03T08:36:19.123Z,50.09
2019-05-03T08:37:19.265Z,50.35
2019-05-03T08:38:19.164Z,50.07
2019-05-03T08:39:19.191Z,50.26
2019-05-03T08:40:19.202Z,50.18
2019-05-03T08:41:19.227Z,49.42
2019-05-03T08:42:19.269Z,48.57
2019-05-03T08:43:19.283Z,48.16
2019-05-03T08:44:19.311Z,48.35
2019-05-03T08:45:19.321Z,48.92
2019-05-03T08:46:19.357Z,48.35
2019-05-03T08:47:19.369Z,48.66
2019-05-03T08:48:19.397Z,48.57
2019-05-03T08:49:19.431Z,47.99
2019-05-03T08:50:21.550Z,50.47
2019-05-03T08:51:19.466Z,50.40
2019-05-03T08:52:19.503Z,49.71
2019-05-03T08:53:19.522Z,49.35
2019-05-03T08:54:19.569Z,49.07
2019-05-03T08:55:19.563Z,49.26
2019-05-03T08:56:19.586Z,49.54
2019-05-03T08:57:19.657Z,49.42
2019-05-03T08:58:19.644Z,50.49
2019-05-03T08:59:29.032Z,49.33
2019-05-03T09:00:19.739Z,52.88
2019-05-03T09:01:19.710Z,50.67
2019-05-03T09:02:19.731Z,48.11
2019-05-03T09:03:19.757Z,47.63
2019-05-03T09:04:19.824Z,47.63
2019-05-03T09:05:19.826Z,47.44
2019-05-03T09:06:19.846Z,47.44
2019-05-03T09:07:19.907Z,47.54
2019-05-03T09:08:19.909Z,48.33
2019-05-03T09:09:19.910Z,47.34
2019-05-03T09:10:19.936Z,47.75
2019-05-03T09:11:30.670Z,46.39
2019-05-03T09:12:19.967Z,46.84
2019-05-03T09:13:20.148Z,48.28
2019-05-03T09:14:20.086Z,48.47
2019-05-03T09:15:21.686Z,48.37
2019-05-03T09:16:20.171Z,48.66
2019-05-03T09:17:20.086Z,48.18
2019-05-03T09:18:20.108Z,49.42
2019-05-03T09:19:20.140Z,51.93
2019-05-03T09:20:20.162Z,53.17
2019-05-03T09:21:20.182Z,54.22
2019-05-03T09:22:20.260Z,54.44
2019-05-03T09:23:23.241Z,52.15
2019-05-03T09:24:20.258Z,48.39
2019-05-03T09:25:20.282Z,47.44
2019-05-03T09:26:20.304Z,47.34
2019-05-03T09:27:20.326Z,47.06
2019-05-03T09:28:20.350Z,46.48
2019-05-03T09:29:20.377Z,45.92
2019-05-03T09:30:20.424Z,45.72
2019-05-03T09:31:20.427Z,45.06
2019-05-03T09:32:20.478Z,44.67
2019-05-03T09:33:20.487Z,44.87
2019-05-03T09:34:20.522Z,45.06
2019-05-03T09:35:29.809Z,44.60
2019-05-03T09:36:20.540Z,44.96
2019-05-03T09:37:20.575Z,45.15
2019-05-03T09:38:20.785Z,45.37
2019-05-03T09:39:20.617Z,45.06
2019-05-03T09:40:20.638Z,45.25
2019-05-03T09:41:20.672Z,47.34
2019-05-03T09:42:20.690Z,46.20
2019-05-03T09:43:20.715Z,44.87
2019-05-03T09:44:20.820Z,44.65
2019-05-03T09:45:20.760Z,44.01
2019-05-03T09:46:23.331Z,44.67
2019-05-03T09:47:20.813Z,44.22
2019-05-03T09:48:20.828Z,43.17
2019-05-03T09:49:20.858Z,42.69
2019-05-03T09:50:20.895Z,42.69
2019-05-03T09:51:20.909Z,42.90
2019-05-03T09:52:20.938Z,45.87
2019-05-03T09:53:20.953Z,47.01
2019-05-03T09:54:20.977Z,47.39
2019-05-03T09:55:21.000Z,45.20
2019-05-03T09:56:21.059Z,43.65
2019-05-03T09:57:21.046Z,44.58
2019-05-03T09:58:21.075Z,44.58
2019-05-03T09:59:21.090Z,44.20
2019-05-03T10:00:21.138Z,43.79
2019-05-03T10:01:21.146Z,45.43
2019-05-03T10:02:21.169Z,45.06
2019-05-03T10:03:21.220Z,44.74
2019-05-03T10:04:21.224Z,43.74
2019-05-03T10:05:21.252Z,43.09
2019-05-03T10:06:22.016Z,41.78
2019-05-03T10:07:21.291Z,40.48
2019-05-03T10:08:21.311Z,38.78
2019-05-03T10:09:21.339Z,37.76
2019-05-03T10:10:21.363Z,36.42
2019-05-03T10:11:21.397Z,37.32
2019-05-03T10:12:21.418Z,39.39
2019-05-03T10:13:23.631Z,40.53
2019-05-03T10:14:21.477Z,41.30
2019-05-03T10:15:21.489Z,42.04
2019-05-03T10:16:21.519Z,42.97
2019-05-03T10:17:21.547Z,43.93
2019-05-03T10:18:21.567Z,44.10
2019-05-03T10:19:33.732Z,44.48
2019-05-03T10:20:21.612Z,44.79
2019-05-03T10:21:21.647Z,44.34
2019-05-03T10:22:21.686Z,43.47
2019-05-03T10:23:21.697Z,40.50
2019-05-03T10:24:21.721Z,39.18
2019-05-03T10:25:21.739Z,36.82
2019-05-03T10:26:21.769Z,36.47
2019-05-03T10:27:21.809Z,35.83
2019-05-03T10:28:21.860Z,33.19
2019-05-03T10:29:21.852Z,33.61
2019-05-03T10:30:21.885Z,32.55
2019-05-03T10:31:21.902Z,32.60
2019-05-03T10:32:21.929Z,33.91
2019-05-03T10:33:21.955Z,34.67
2019-05-03T10:34:21.982Z,35.44
2019-05-03T10:35:22.015Z,35.57
2019-05-03T10:36:22.045Z,34.22
2019-05-03T10:37:22.059Z,34.34
2019-05-03T10:38:22.088Z,34.39
2019-05-03T10:39:22.121Z,34.22
2019-05-03T10:40:22.147Z,34.55
2019-05-03T10:41:22.181Z,32.54
2019-05-03T10:42:24.325Z,32.46
2019-05-03T10:43:24.638Z,31.77
2019-05-03T10:44:24.419Z,32.20
2019-05-03T10:45:25.679Z,35.48
2019-05-03T10:46:22.317Z,34.94
2019-05-03T10:47:22.346Z,35.61
2019-05-03T10:48:24.641Z,36.06
2019-05-03T10:49:24.443Z,37.68
2019-05-03T10:50:22.430Z,37.59
2019-05-03T10:51:22.453Z,37.32
2019-05-03T10:52:22.488Z,36.86
2019-05-03T10:53:22.511Z,35.83
2019-05-03T10:54:22.539Z,35.77
2019-05-03T10:55:24.922Z,35.77
2019-05-03T10:56:24.529Z,34.00
2019-05-03T10:57:24.724Z,34.29
2019-05-03T10:58:24.930Z,35.04
2019-05-03T10:59:24.643Z,35.33
2019-05-03T11:00:42.512Z,36.06
2019-05-03T11:01:22.733Z,36.92
2019-05-03T11:02:22.765Z,36.47
2019-05-03T11:03:22.788Z,35.81
2019-05-03T11:04:22.812Z,35.46
2019-05-03T11:05:22.841Z,35.57
2019-05-03T11:06:22.870Z,34.15
2019-05-03T11:07:22.906Z,33.11
2019-05-03T11:08:22.926Z,32.14
2019-05-03T11:09:22.954Z,33.09
2019-05-03T11:10:22.986Z,33.05
2019-05-03T11:11:23.014Z,31.92
2019-05-03T11:12:23.044Z,31.08
2019-05-03T11:13:23.077Z,32.28
2019-05-03T11:14:25.216Z,34.20
2019-05-03T11:15:23.146Z,35.31
2019-05-03T11:16:25.149Z,36.43
2019-05-03T11:17:23.201Z,37.78
2019-05-03T11:18:25.171Z,38.76
2019-05-03T11:19:25.184Z,40.12
2019-05-03T11:20:29.058Z,37.82
2019-05-03T11:21:30.294Z,37.78
2019-05-03T11:22:25.257Z,37.95
2019-05-03T11:23:25.136Z,37.78
2019-05-03T11:24:26.741Z,37.21
2019-05-03T11:25:24.943Z,36.63
2019-05-03T11:26:25.275Z,35.69
2019-05-03T11:27:24.825Z,35.35
2019-05-03T11:28:24.972Z,35.30
2019-05-03T11:29:24.766Z,33.01
2019-05-03T11:30:24.680Z,31.75
2019-05-03T11:31:24.852Z,31.85
2019-05-03T11:32:25.495Z,31.20
2019-05-03T11:33:24.754Z,30.82
2019-05-03T11:34:25.349Z,30.11
2019-05-03T11:35:24.692Z,30.96
2019-05-03T11:36:25.293Z,31.99
2019-05-03T11:37:25.162Z,33.03
2019-05-03T11:38:25.390Z,33.01
2019-05-03T11:39:25.104Z,33.86
2019-05-03T11:40:25.128Z,34.81
2019-05-03T11:41:32.150Z,35.47
2019-05-03T11:42:24.534Z,35.28
2019-05-03T11:43:24.757Z,35.58
2019-05-03T11:44:24.596Z,36.63
2019-05-03T11:45:24.583Z,35.86
2019-05-03T11:46:24.861Z,35.86
2019-05-03T11:47:25.590Z,36.71
2019-05-03T11:48:25.253Z,36.52
2019-05-03T11:49:25.461Z,37.76
2019-05-03T11:50:25.310Z,37.48
2019-05-03T11:51:24.879Z,38.41
2019-05-03T11:52:25.818Z,38.43
2019-05-03T11:53:25.170Z,38.22
2019-05-03T11:54:24.996Z,37.46
2019-05-03T11:55:26.585Z,37.74
2019-05-03T11:56:24.979Z,37.26
2019-05-03T11:57:26.290Z,37.34
2019-05-03T11:58:27.119Z,37.36
2019-05-03T11:59:25.557Z,37.74
2019-05-03T12:00:25.313Z,38.03
2019-05-03T12:01:25.658Z,38.41
2019-05-03T12:02:24.815Z,39.86
2019-05-03T12:03:25.000Z,38.22
2019-05-03T12:04:24.936Z,37.74
2019-05-03T12:05:24.629Z,37.17
2019-05-03T12:06:24.962Z,37.46
2019-05-03T12:07:36.550Z,37.07
2019-05-03T12:08:25.262Z,37.46
2019-05-03T12:09:24.577Z,37.55
2019-05-03T12:10:37.485Z,37.36
2019-05-03T12:11:24.631Z,36.31
2019-05-03T12:12:24.661Z,36.41
2019-05-03T12:13:24.756Z,37.46
2019-05-03T12:14:24.717Z,38.32
2019-05-03T12:15:24.739Z,38.79
2019-05-03T12:16:59.874Z,39.25
2019-05-03T12:17:28.998Z,39.64
2019-05-03T12:18:25.626Z,39.54
2019-05-03T12:19:30.180Z,39.54
2019-05-03T12:20:28.221Z,39.15
2019-05-03T12:21:27.455Z,38.87
2019-05-03T12:22:26.060Z,38.87
2019-05-03T12:23:25.741Z,38.87
2019-05-03T12:24:26.717Z,39.08
2019-05-03T12:25:26.042Z,38.89
2019-05-03T12:26:27.129Z,38.96
2019-05-03T12:27:25.029Z,39.94
2019-05-03T12:28:25.683Z,39.47
2019-05-03T12:29:25.094Z,39.86
2019-05-03T12:30:27.690Z,40.92
2019-05-03T12:31:33.895Z,40.25
2019-05-03T12:32:25.204Z,38.62
2019-05-03T12:33:26.083Z,39.08
2019-05-03T12:34:25.697Z,39.56
2019-05-03T12:35:25.237Z,38.98
2019-05-03T12:36:25.259Z,39.39
2019-05-03T12:37:25.277Z,39.48
2019-05-03T12:38:25.651Z,41.70
2019-05-03T12:39:29.958Z,39.58
2019-05-03T12:40:25.593Z,38.71
2019-05-03T12:41:25.560Z,39.96
2019-05-03T12:42:25.651Z,41.89
2019-05-03T12:43:25.719Z,40.92
2019-05-03T12:44:25.456Z,39.77
2019-05-03T12:45:25.492Z,39.58
2019-05-03T12:46:26.191Z,40.03
2019-05-03T12:47:25.554Z,40.61
2019-05-03T12:48:25.558Z,40.70
2019-05-03T12:49:25.584Z,40.03
2019-05-03T12:50:25.627Z,39.56
2019-05-03T12:51:25.890Z,39.54
2019-05-03T12:52:26.801Z,40.01
2019-05-03T12:53:25.683Z,40.01
2019-05-03T12:54:25.713Z,40.40